Terminal Aerodrome Forecast
Issued by NWS

Home | Current Version | Previous Version | Text Only | Print | Product List | Glossary On
Versions: 1 2 3 4 5 6 7 8 9 10 11 12 13 14 15 16 17
000
FTUS43 KMKX 181125
TAFENW
TAF
KENW 181125Z 1812/1912 20007KT P6SM SKC
     FM181500 20012G19KT P6SM SKC
     FM190000 20012KT P6SM FEW250 WS020/22040KT
     FM190600 23008KT P6SM FEW035 WS020/26040KT
     FM190800 25006KT P6SM FEW035=

USA.gov is the U.S. government's official web portal to all federal, state and local government web resources and services.